sensor_id;sensor_type;location;lat;lon;timestamp;P1;durP1;ratioP1;P2;durP2;ratioP2
68653;SDS011;55636;51.108;13.622;2023-01-26T00:00:43;26.97;;;17.87;;
68653;SDS011;55636;51.108;13.622;2023-01-26T00:01:45;28.53;;;18.87;;
68653;SDS011;55636;51.108;13.622;2023-01-26T00:02:47;28.40;;;18.07;;
68653;SDS011;55636;51.108;13.622;2023-01-26T00:03:50;28.70;;;17.63;;
68653;SDS011;55636;51.108;13.622;2023-01-26T00:04:52;27.17;;;18.50;;
68653;SDS011;55636;51.108;13.622;2023-01-26T00:05:54;28.33;;;18.23;;
68653;SDS011;55636;51.108;13.622;2023-01-26T00:06:56;28.10;;;18.73;;
68653;SDS011;55636;51.108;13.622;2023-01-26T00:07:59;27.83;;;18.50;;
68653;SDS011;55636;51.108;13.622;2023-01-26T00:09:01;26.83;;;18.07;;
68653;SDS011;55636;51.108;13.622;2023-01-26T00:10:03;28.27;;;18.57;;
68653;SDS011;55636;51.108;13.622;2023-01-26T00:11:07;27.37;;;17.80;;
68653;SDS011;55636;51.108;13.622;2023-01-26T00:12:11;27.23;;;18.20;;
68653;SDS011;55636;51.108;13.622;2023-01-26T00:13:13;29.37;;;18.83;;
68653;SDS011;55636;51.108;13.622;2023-01-26T00:14:15;26.87;;;17.83;;
68653;SDS011;55636;51.108;13.622;2023-01-26T00:15:18;27.60;;;17.33;;
68653;SDS011;55636;51.108;13.622;2023-01-26T00:16:20;29.47;;;18.63;;
68653;SDS011;55636;51.108;13.622;2023-01-26T00:17:23;27.53;;;17.87;;
68653;SDS011;55636;51.108;13.622;2023-01-26T00:18:39;27.43;;;17.30;;
68653;SDS011;55636;51.108;13.622;2023-01-26T00:19:42;26.53;;;18.20;;
68653;SDS011;55636;51.108;13.622;2023-01-26T00:20:44;27.20;;;17.50;;
68653;SDS011;55636;51.108;13.622;2023-01-26T00:21:49;26.50;;;17.03;;
68653;SDS011;55636;51.108;13.622;2023-01-26T00:22:54;27.63;;;18.40;;
68653;SDS011;55636;51.108;13.622;2023-01-26T00:23:56;27.40;;;18.07;;
68653;SDS011;55636;51.108;13.622;2023-01-26T00:24:59;26.57;;;18.37;;
68653;SDS011;55636;51.108;13.622;2023-01-26T00:26:07;27.03;;;18.13;;
68653;SDS011;55636;51.108;13.622;2023-01-26T00:27:12;27.67;;;17.67;;
68653;SDS011;55636;51.108;13.622;2023-01-26T00:28:14;28.47;;;18.33;;
68653;SDS011;55636;51.108;13.622;2023-01-26T00:29:16;29.57;;;17.97;;
68653;SDS011;55636;51.108;13.622;2023-01-26T00:30:19;29.37;;;18.13;;
68653;SDS011;55636;51.108;13.622;2023-01-26T00:31:23;29.83;;;19.23;;
68653;SDS011;55636;51.108;13.622;2023-01-26T00:32:27;30.17;;;18.73;;
68653;SDS011;55636;51.108;13.622;2023-01-26T00:33:29;30.03;;;19.70;;
68653;SDS011;55636;51.108;13.622;2023-01-26T00:34:32;29.93;;;18.77;;
68653;SDS011;55636;51.108;13.622;2023-01-26T00:35:37;31.80;;;18.47;;
68653;SDS011;55636;51.108;13.622;2023-01-26T00:36:39;31.20;;;18.13;;
68653;SDS011;55636;51.108;13.622;2023-01-26T00:37:41;29.60;;;19.07;;
68653;SDS011;55636;51.108;13.622;2023-01-26T00:38:43;27.23;;;17.93;;
68653;SDS011;55636;51.108;13.622;2023-01-26T00:39:46;26.67;;;17.37;;
68653;SDS011;55636;51.108;13.622;2023-01-26T00:40:52;27.87;;;18.43;;
68653;SDS011;55636;51.108;13.622;2023-01-26T00:41:54;28.23;;;18.37;;
68653;SDS011;55636;51.108;13.622;2023-01-26T00:43:18;29.73;;;18.67;;
68653;SDS011;55636;51.108;13.622;2023-01-26T00:44:23;27.47;;;18.07;;
68653;SDS011;55636;51.108;13.622;2023-01-26T00:45:25;31.03;;;18.77;;
68653;SDS011;55636;51.108;13.622;2023-01-26T00:46:28;28.07;;;18.00;;
68653;SDS011;55636;51.108;13.622;2023-01-26T00:47:31;30.43;;;18.93;;
68653;SDS011;55636;51.108;13.622;2023-01-26T00:48:33;31.37;;;19.03;;
68653;SDS011;55636;51.108;13.622;2023-01-26T00:49:35;29.93;;;18.73;;
68653;SDS011;55636;51.108;13.622;2023-01-26T00:50:37;30.77;;;19.20;;
68653;SDS011;55636;51.108;13.622;2023-01-26T00:51:39;32.10;;;19.90;;
68653;SDS011;55636;51.108;13.622;2023-01-26T00:52:44;32.27;;;19.00;;
68653;SDS011;55636;51.108;13.622;2023-01-26T00:53:46;31.93;;;19.40;;
68653;SDS011;55636;51.108;13.622;2023-01-26T00:54:52;29.97;;;18.53;;
68653;SDS011;55636;51.108;13.622;2023-01-26T00:55:55;32.70;;;19.00;;
68653;SDS011;55636;51.108;13.622;2023-01-26T00:56:59;32.00;;;19.20;;
68653;SDS011;55636;51.108;13.622;2023-01-26T00:58:05;32.30;;;20.10;;
68653;SDS011;55636;51.108;13.622;2023-01-26T00:59:11;36.43;;;20.47;;
68653;SDS011;55636;51.108;13.622;2023-01-26T01:00:13;31.80;;;19.40;;
68653;SDS011;55636;51.108;13.622;2023-01-26T01:01:18;33.00;;;19.90;;
68653;SDS011;55636;51.108;13.622;2023-01-26T01:02:22;31.43;;;19.17;;
68653;SDS011;55636;51.108;13.622;2023-01-26T01:03:28;32.53;;;19.57;;
68653;SDS011;55636;51.108;13.622;2023-01-26T01:04:31;33.80;;;19.83;;
68653;SDS011;55636;51.108;13.622;2023-01-26T01:05:34;33.53;;;20.00;;
68653;SDS011;55636;51.108;13.622;2023-01-26T01:06:40;31.83;;;20.13;;
68653;SDS011;55636;51.108;13.622;2023-01-26T01:07:44;32.03;;;18.60;;
68653;SDS011;55636;51.108;13.622;2023-01-26T01:08:46;31.90;;;19.17;;
68653;SDS011;55636;51.108;13.622;2023-01-26T01:09:49;33.70;;;20.30;;
68653;SDS011;55636;51.108;13.622;2023-01-26T01:11:01;33.53;;;19.03;;
68653;SDS011;55636;51.108;13.622;2023-01-26T01:12:04;35.63;;;19.67;;
68653;SDS011;55636;51.108;13.622;2023-01-26T01:13:06;34.23;;;20.40;;
68653;SDS011;55636;51.108;13.622;2023-01-26T01:14:12;34.30;;;20.30;;
68653;SDS011;55636;51.108;13.622;2023-01-26T01:15:15;33.47;;;19.70;;
68653;SDS011;55636;51.108;13.622;2023-01-26T01:16:17;32.77;;;19.87;;
68653;SDS011;55636;51.108;13.622;2023-01-26T01:17:20;31.97;;;20.03;;
68653;SDS011;55636;51.108;13.622;2023-01-26T01:18:22;36.20;;;19.50;;
68653;SDS011;55636;51.108;13.622;2023-01-26T01:19:24;35.73;;;20.23;;
68653;SDS011;55636;51.108;13.622;2023-01-26T01:20:28;31.03;;;18.73;;
68653;SDS011;55636;51.108;13.622;2023-01-26T01:21:30;33.83;;;19.33;;
68653;SDS011;55636;51.108;13.622;2023-01-26T01:22:34;30.73;;;19.00;;
68653;SDS011;55636;51.108;13.622;2023-01-26T01:23:37;32.57;;;19.17;;
68653;SDS011;55636;51.108;13.622;2023-01-26T01:24:40;33.83;;;19.10;;
68653;SDS011;55636;51.108;13.622;2023-01-26T01:25:42;33.27;;;19.63;;
68653;SDS011;55636;51.108;13.622;2023-01-26T01:26:44;33.03;;;19.60;;
68653;SDS011;55636;51.108;13.622;2023-01-26T01:27:47;31.47;;;18.73;;
68653;SDS011;55636;51.108;13.622;2023-01-26T01:28:51;31.27;;;18.97;;
68653;SDS011;55636;51.108;13.622;2023-01-26T01:29:55;32.57;;;19.43;;
68653;SDS011;55636;51.108;13.622;2023-01-26T01:30:57;31.27;;;19.00;;
68653;SDS011;55636;51.108;13.622;2023-01-26T01:32:00;33.27;;;18.73;;
68653;SDS011;55636;51.108;13.622;2023-01-26T01:33:03;35.00;;;19.77;;
68653;SDS011;55636;51.108;13.622;2023-01-26T01:34:05;37.53;;;20.77;;
68653;SDS011;55636;51.108;13.622;2023-01-26T01:35:08;32.77;;;19.70;;
68653;SDS011;55636;51.108;13.622;2023-01-26T01:36:11;35.30;;;20.40;;
68653;SDS011;55636;51.108;13.622;2023-01-26T01:37:16;31.63;;;18.93;;
68653;SDS011;55636;51.108;13.622;2023-01-26T01:38:19;33.07;;;19.93;;
68653;SDS011;55636;51.108;13.622;2023-01-26T01:39:21;32.57;;;18.63;;
68653;SDS011;55636;51.108;13.622;2023-01-26T01:40:24;32.00;;;19.17;;
68653;SDS011;55636;51.108;13.622;2023-01-26T01:41:26;32.93;;;19.40;;
68653;SDS011;55636;51.108;13.622;2023-01-26T01:42:29;32.77;;;19.40;;
68653;SDS011;55636;51.108;13.622;2023-01-26T01:43:31;32.03;;;20.50;;
68653;SDS011;55636;51.108;13.622;2023-01-26T01:44:34;34.80;;;19.87;;
68653;SDS011;55636;51.108;13.622;2023-01-26T01:45:41;34.27;;;19.90;;
68653;SDS011;55636;51.108;13.622;2023-01-26T01:48:01;33.17;;;18.90;;
68653;SDS011;55636;51.108;13.622;2023-01-26T01:49:15;33.10;;;19.43;;
68653;SDS011;55636;51.108;13.622;2023-01-26T01:50:20;32.80;;;19.17;;
68653;SDS011;55636;51.108;13.622;2023-01-26T01:51:30;32.37;;;18.43;;
68653;SDS011;55636;51.108;13.622;2023-01-26T01:52:37;32.17;;;18.97;;
68653;SDS011;55636;51.108;13.622;2023-01-26T01:53:41;33.63;;;20.00;;
68653;SDS011;55636;51.108;13.622;2023-01-26T01:54:49;35.60;;;19.43;;
68653;SDS011;55636;51.108;13.622;2023-01-26T01:55:58;34.40;;;19.80;;
68653;SDS011;55636;51.108;13.622;2023-01-26T01:57:03;36.40;;;20.27;;
68653;SDS011;55636;51.108;13.622;2023-01-26T01:58:16;32.07;;;18.87;;
68653;SDS011;55636;51.108;13.622;2023-01-26T01:59:19;34.93;;;19.33;;
68653;SDS011;55636;51.108;13.622;2023-01-26T02:00:22;35.43;;;20.10;;
68653;SDS011;55636;51.108;13.622;2023-01-26T02:01:25;34.30;;;20.20;;
68653;SDS011;55636;51.108;13.622;2023-01-26T02:02:27;32.50;;;19.33;;
68653;SDS011;55636;51.108;13.622;2023-01-26T02:03:29;33.77;;;18.77;;
68653;SDS011;55636;51.108;13.622;2023-01-26T02:04:33;33.63;;;19.20;;
68653;SDS011;55636;51.108;13.622;2023-01-26T02:05:47;34.90;;;19.30;;
68653;SDS011;55636;51.108;13.622;2023-01-26T02:07:08;32.33;;;19.63;;
68653;SDS011;55636;51.108;13.622;2023-01-26T02:08:13;34.13;;;18.13;;
68653;SDS011;55636;51.108;13.622;2023-01-26T02:09:20;32.50;;;19.17;;
68653;SDS011;55636;51.108;13.622;2023-01-26T02:10:46;32.50;;;18.70;;
68653;SDS011;55636;51.108;13.622;2023-01-26T02:11:51;30.40;;;18.20;;
68653;SDS011;55636;51.108;13.622;2023-01-26T02:12:53;33.77;;;18.70;;
68653;SDS011;55636;51.108;13.622;2023-01-26T02:13:57;32.00;;;18.77;;
68653;SDS011;55636;51.108;13.622;2023-01-26T02:15:04;32.17;;;18.87;;
68653;SDS011;55636;51.108;13.622;2023-01-26T02:16:07;34.70;;;19.10;;
68653;SDS011;55636;51.108;13.622;2023-01-26T02:17:12;30.83;;;18.80;;
68653;SDS011;55636;51.108;13.622;2023-01-26T02:18:15;30.23;;;18.47;;
68653;SDS011;55636;51.108;13.622;2023-01-26T02:19:20;31.87;;;18.90;;
68653;SDS011;55636;51.108;13.622;2023-01-26T02:21:37;31.13;;;18.50;;
68653;SDS011;55636;51.108;13.622;2023-01-26T02:22:44;31.67;;;18.60;;
68653;SDS011;55636;51.108;13.622;2023-01-26T02:25:07;30.20;;;17.70;;
68653;SDS011;55636;51.108;13.622;2023-01-26T02:26:22;29.87;;;18.17;;
68653;SDS011;55636;51.108;13.622;2023-01-26T02:27:26;33.80;;;18.10;;
68653;SDS011;55636;51.108;13.622;2023-01-26T02:28:29;34.77;;;19.87;;
68653;SDS011;55636;51.108;13.622;2023-01-26T02:29:31;31.23;;;18.43;;
68653;SDS011;55636;51.108;13.622;2023-01-26T02:30:33;33.93;;;19.30;;
68653;SDS011;55636;51.108;13.622;2023-01-26T02:31:36;32.43;;;18.80;;
68653;SDS011;55636;51.108;13.622;2023-01-26T02:32:41;31.47;;;18.67;;
68653;SDS011;55636;51.108;13.622;2023-01-26T02:33:43;30.43;;;18.50;;
68653;SDS011;55636;51.108;13.622;2023-01-26T02:34:54;30.73;;;17.87;;
68653;SDS011;55636;51.108;13.622;2023-01-26T02:35:57;32.13;;;19.00;;
68653;SDS011;55636;51.108;13.622;2023-01-26T02:37:00;31.07;;;18.97;;
68653;SDS011;55636;51.108;13.622;2023-01-26T02:38:03;32.40;;;18.33;;
68653;SDS011;55636;51.108;13.622;2023-01-26T02:41:41;32.03;;;18.37;;
68653;SDS011;55636;51.108;13.622;2023-01-26T02:43:02;31.33;;;18.50;;
68653;SDS011;55636;51.108;13.622;2023-01-26T02:44:05;27.97;;;18.07;;
68653;SDS011;55636;51.108;13.622;2023-01-26T02:45:12;30.20;;;17.73;;
68653;SDS011;55636;51.108;13.622;2023-01-26T02:46:17;28.60;;;17.73;;
68653;SDS011;55636;51.108;13.622;2023-01-26T02:47:19;29.73;;;17.70;;
68653;SDS011;55636;51.108;13.622;2023-01-26T02:48:22;30.60;;;17.90;;
68653;SDS011;55636;51.108;13.622;2023-01-26T02:49:43;28.23;;;16.77;;
68653;SDS011;55636;51.108;13.622;2023-01-26T02:50:50;28.67;;;16.60;;
68653;SDS011;55636;51.108;13.622;2023-01-26T02:51:53;25.53;;;16.20;;
68653;SDS011;55636;51.108;13.622;2023-01-26T02:52:56;31.80;;;17.83;;
68653;SDS011;55636;51.108;13.622;2023-01-26T02:53:59;30.30;;;17.53;;
68653;SDS011;55636;51.108;13.622;2023-01-26T02:55:01;26.53;;;16.63;;
68653;SDS011;55636;51.108;13.622;2023-01-26T02:56:23;25.37;;;15.37;;
68653;SDS011;55636;51.108;13.622;2023-01-26T02:57:25;26.90;;;16.57;;
68653;SDS011;55636;51.108;13.622;2023-01-26T02:58:28;26.37;;;15.77;;
68653;SDS011;55636;51.108;13.622;2023-01-26T02:59:30;28.70;;;17.03;;
68653;SDS011;55636;51.108;13.622;2023-01-26T03:00:33;26.60;;;16.33;;
68653;SDS011;55636;51.108;13.622;2023-01-26T03:01:46;28.87;;;17.00;;
68653;SDS011;55636;51.108;13.622;2023-01-26T03:02:52;24.57;;;16.63;;
68653;SDS011;55636;51.108;13.622;2023-01-26T03:03:58;27.37;;;17.37;;
68653;SDS011;55636;51.108;13.622;2023-01-26T03:05:00;28.43;;;17.17;;
68653;SDS011;55636;51.108;13.622;2023-01-26T03:06:09;30.97;;;17.10;;
68653;SDS011;55636;51.108;13.622;2023-01-26T03:07:13;29.47;;;17.23;;
68653;SDS011;55636;51.108;13.622;2023-01-26T03:08:16;28.77;;;16.77;;
68653;SDS011;55636;51.108;13.622;2023-01-26T03:09:18;29.50;;;16.73;;
68653;SDS011;55636;51.108;13.622;2023-01-26T03:10:21;27.73;;;16.53;;
68653;SDS011;55636;51.108;13.622;2023-01-26T03:11:28;28.17;;;16.77;;
68653;SDS011;55636;51.108;13.622;2023-01-26T03:12:45;30.10;;;17.40;;
68653;SDS011;55636;51.108;13.622;2023-01-26T03:13:48;30.10;;;17.90;;
68653;SDS011;55636;51.108;13.622;2023-01-26T03:14:51;30.07;;;17.60;;
68653;SDS011;55636;51.108;13.622;2023-01-26T03:16:12;29.73;;;17.33;;
68653;SDS011;55636;51.108;13.622;2023-01-26T03:17:19;31.17;;;17.53;;
68653;SDS011;55636;51.108;13.622;2023-01-26T03:18:21;29.80;;;17.23;;
68653;SDS011;55636;51.108;13.622;2023-01-26T03:19:43;28.90;;;17.20;;
68653;SDS011;55636;51.108;13.622;2023-01-26T03:21:11;29.60;;;16.60;;
68653;SDS011;55636;51.108;13.622;2023-01-26T03:22:40;30.17;;;16.43;;
68653;SDS011;55636;51.108;13.622;2023-01-26T03:24:04;27.80;;;16.53;;
68653;SDS011;55636;51.108;13.622;2023-01-26T03:25:28;29.30;;;16.53;;
68653;SDS011;55636;51.108;13.622;2023-01-26T03:26:49;26.40;;;15.83;;
68653;SDS011;55636;51.108;13.622;2023-01-26T03:28:10;28.83;;;15.80;;
68653;SDS011;55636;51.108;13.622;2023-01-26T03:29:15;26.17;;;16.57;;
68653;SDS011;55636;51.108;13.622;2023-01-26T03:30:18;26.37;;;16.43;;
68653;SDS011;55636;51.108;13.622;2023-01-26T03:31:22;26.90;;;15.93;;
68653;SDS011;55636;51.108;13.622;2023-01-26T03:32:25;29.10;;;16.53;;
68653;SDS011;55636;51.108;13.622;2023-01-26T03:33:28;28.07;;;16.70;;
68653;SDS011;55636;51.108;13.622;2023-01-26T03:34:30;29.10;;;16.90;;
68653;SDS011;55636;51.108;13.622;2023-01-26T03:35:33;27.90;;;16.77;;
68653;SDS011;55636;51.108;13.622;2023-01-26T03:36:35;28.37;;;17.23;;
68653;SDS011;55636;51.108;13.622;2023-01-26T03:37:43;29.03;;;17.17;;
68653;SDS011;55636;51.108;13.622;2023-01-26T03:38:52;28.73;;;16.50;;
68653;SDS011;55636;51.108;13.622;2023-01-26T03:39:56;28.03;;;16.83;;
68653;SDS011;55636;51.108;13.622;2023-01-26T03:41:17;29.60;;;16.50;;
68653;SDS011;55636;51.108;13.622;2023-01-26T03:42:40;26.50;;;17.10;;
68653;SDS011;55636;51.108;13.622;2023-01-26T03:44:03;28.70;;;16.30;;
68653;SDS011;55636;51.108;13.622;2023-01-26T03:45:24;28.47;;;16.83;;
68653;SDS011;55636;51.108;13.622;2023-01-26T03:46:45;26.83;;;16.20;;
68653;SDS011;55636;51.108;13.622;2023-01-26T03:48:06;28.77;;;16.30;;
68653;SDS011;55636;51.108;13.622;2023-01-26T03:49:32;26.70;;;15.73;;
68653;SDS011;55636;51.108;13.622;2023-01-26T03:50:53;27.30;;;15.60;;
68653;SDS011;55636;51.108;13.622;2023-01-26T03:52:14;26.03;;;16.07;;
68653;SDS011;55636;51.108;13.622;2023-01-26T03:53:38;28.73;;;16.67;;
68653;SDS011;55636;51.108;13.622;2023-01-26T03:55:01;27.70;;;16.03;;
68653;SDS011;55636;51.108;13.622;2023-01-26T03:56:22;25.83;;;15.67;;
68653;SDS011;55636;51.108;13.622;2023-01-26T03:57:30;28.77;;;17.00;;
68653;SDS011;55636;51.108;13.622;2023-01-26T03:58:33;29.33;;;17.17;;
68653;SDS011;55636;51.108;13.622;2023-01-26T03:59:35;26.90;;;15.83;;
68653;SDS011;55636;51.108;13.622;2023-01-26T04:00:48;28.63;;;16.40;;
68653;SDS011;55636;51.108;13.622;2023-01-26T04:01:51;27.27;;;16.20;;
68653;SDS011;55636;51.108;13.622;2023-01-26T04:03:13;25.53;;;15.37;;
68653;SDS011;55636;51.108;13.622;2023-01-26T04:04:34;29.60;;;16.53;;
68653;SDS011;55636;51.108;13.622;2023-01-26T04:06:00;29.90;;;17.03;;
68653;SDS011;55636;51.108;13.622;2023-01-26T04:07:22;27.93;;;16.60;;
68653;SDS011;55636;51.108;13.622;2023-01-26T04:08:47;28.00;;;17.13;;
68653;SDS011;55636;51.108;13.622;2023-01-26T04:09:49;29.97;;;17.07;;
68653;SDS011;55636;51.108;13.622;2023-01-26T04:10:54;29.07;;;16.87;;
68653;SDS011;55636;51.108;13.622;2023-01-26T04:11:57;31.93;;;18.10;;
68653;SDS011;55636;51.108;13.622;2023-01-26T04:13:00;29.70;;;17.53;;
68653;SDS011;55636;51.108;13.622;2023-01-26T04:14:26;30.07;;;16.83;;
68653;SDS011;55636;51.108;13.622;2023-01-26T04:15:55;27.90;;;17.20;;
68653;SDS011;55636;51.108;13.622;2023-01-26T04:17:17;29.87;;;17.37;;
68653;SDS011;55636;51.108;13.622;2023-01-26T04:18:41;28.73;;;16.80;;
68653;SDS011;55636;51.108;13.622;2023-01-26T04:20:04;30.27;;;17.90;;
68653;SDS011;55636;51.108;13.622;2023-01-26T04:21:26;31.20;;;18.13;;
68653;SDS011;55636;51.108;13.622;2023-01-26T04:22:36;29.47;;;16.87;;
68653;SDS011;55636;51.108;13.622;2023-01-26T04:23:48;30.67;;;17.60;;
68653;SDS011;55636;51.108;13.622;2023-01-26T04:24:51;29.53;;;18.03;;
68653;SDS011;55636;51.108;13.622;2023-01-26T04:25:53;29.03;;;17.63;;
68653;SDS011;55636;51.108;13.622;2023-01-26T04:26:56;31.40;;;18.27;;
68653;SDS011;55636;51.108;13.622;2023-01-26T04:28:17;31.03;;;18.80;;
68653;SDS011;55636;51.108;13.622;2023-01-26T04:29:21;30.83;;;18.67;;
68653;SDS011;55636;51.108;13.622;2023-01-26T04:30:25;31.77;;;18.30;;
68653;SDS011;55636;51.108;13.622;2023-01-26T04:31:27;29.07;;;17.60;;
68653;SDS011;55636;51.108;13.622;2023-01-26T04:32:30;30.33;;;18.33;;
68653;SDS011;55636;51.108;13.622;2023-01-26T04:33:32;32.53;;;18.10;;
68653;SDS011;55636;51.108;13.622;2023-01-26T04:34:34;29.27;;;17.63;;
68653;SDS011;55636;51.108;13.622;2023-01-26T04:35:43;32.67;;;17.50;;
68653;SDS011;55636;51.108;13.622;2023-01-26T04:36:46;29.30;;;17.13;;
68653;SDS011;55636;51.108;13.622;2023-01-26T04:37:50;32.43;;;17.80;;
68653;SDS011;55636;51.108;13.622;2023-01-26T04:38:52;29.77;;;17.53;;
68653;SDS011;55636;51.108;13.622;2023-01-26T04:39:55;27.80;;;16.97;;
68653;SDS011;55636;51.108;13.622;2023-01-26T04:40:58;29.63;;;17.03;;
68653;SDS011;55636;51.108;13.622;2023-01-26T04:42:01;27.87;;;16.63;;
68653;SDS011;55636;51.108;13.622;2023-01-26T04:43:03;26.33;;;16.57;;
68653;SDS011;55636;51.108;13.622;2023-01-26T04:44:06;27.90;;;16.70;;
68653;SDS011;55636;51.108;13.622;2023-01-26T04:45:09;29.60;;;17.30;;
68653;SDS011;55636;51.108;13.622;2023-01-26T04:46:12;27.93;;;16.50;;
68653;SDS011;55636;51.108;13.622;2023-01-26T04:47:15;28.50;;;16.93;;
68653;SDS011;55636;51.108;13.622;2023-01-26T04:48:18;29.60;;;17.97;;
68653;SDS011;55636;51.108;13.622;2023-01-26T04:49:22;29.90;;;18.10;;
68653;SDS011;55636;51.108;13.622;2023-01-26T04:50:27;30.00;;;18.03;;
68653;SDS011;55636;51.108;13.622;2023-01-26T04:51:29;28.87;;;17.07;;
68653;SDS011;55636;51.108;13.622;2023-01-26T04:52:34;32.87;;;18.07;;
68653;SDS011;55636;51.108;13.622;2023-01-26T04:53:36;28.30;;;16.90;;
68653;SDS011;55636;51.108;13.622;2023-01-26T04:54:39;28.43;;;17.53;;
68653;SDS011;55636;51.108;13.622;2023-01-26T04:55:41;30.63;;;17.83;;
68653;SDS011;55636;51.108;13.622;2023-01-26T04:56:44;32.07;;;17.90;;
68653;SDS011;55636;51.108;13.622;2023-01-26T04:57:46;29.27;;;17.20;;
68653;SDS011;55636;51.108;13.622;2023-01-26T04:58:50;30.43;;;17.40;;
68653;SDS011;55636;51.108;13.622;2023-01-26T04:59:53;31.53;;;18.30;;
68653;SDS011;55636;51.108;13.622;2023-01-26T05:00:56;31.73;;;18.00;;
68653;SDS011;55636;51.108;13.622;2023-01-26T05:01:59;33.80;;;18.70;;
68653;SDS011;55636;51.108;13.622;2023-01-26T05:03:02;32.10;;;18.93;;
68653;SDS011;55636;51.108;13.622;2023-01-26T05:04:05;31.07;;;18.47;;
68653;SDS011;55636;51.108;13.622;2023-01-26T05:05:09;28.80;;;17.57;;
68653;SDS011;55636;51.108;13.622;2023-01-26T05:06:11;28.93;;;17.27;;
68653;SDS011;55636;51.108;13.622;2023-01-26T05:07:14;29.13;;;18.10;;
68653;SDS011;55636;51.108;13.622;2023-01-26T05:08:18;30.83;;;18.17;;
68653;SDS011;55636;51.108;13.622;2023-01-26T05:09:25;31.97;;;18.90;;
68653;SDS011;55636;51.108;13.622;2023-01-26T05:10:47;33.30;;;18.13;;
68653;SDS011;55636;51.108;13.622;2023-01-26T05:11:57;31.77;;;17.50;;
68653;SDS011;55636;51.108;13.622;2023-01-26T05:13:39;32.03;;;17.50;;
68653;SDS011;55636;51.108;13.622;2023-01-26T05:14:51;29.73;;;17.60;;
68653;SDS011;55636;51.108;13.622;2023-01-26T05:16:04;29.23;;;17.83;;
68653;SDS011;55636;51.108;13.622;2023-01-26T05:17:27;32.33;;;17.93;;
68653;SDS011;55636;51.108;13.622;2023-01-26T05:18:42;29.13;;;17.40;;
68653;SDS011;55636;51.108;13.622;2023-01-26T05:20:01;31.77;;;18.07;;
68653;SDS011;55636;51.108;13.622;2023-01-26T05:21:14;30.40;;;17.97;;
68653;SDS011;55636;51.108;13.622;2023-01-26T05:22:24;30.77;;;18.07;;
68653;SDS011;55636;51.108;13.622;2023-01-26T05:23:44;31.30;;;17.33;;
68653;SDS011;55636;51.108;13.622;2023-01-26T05:25:00;32.23;;;17.87;;
68653;SDS011;55636;51.108;13.622;2023-01-26T05:26:11;33.00;;;17.50;;
68653;SDS011;55636;51.108;13.622;2023-01-26T05:27:22;27.80;;;16.43;;
68653;SDS011;55636;51.108;13.622;2023-01-26T05:28:27;27.67;;;16.27;;
68653;SDS011;55636;51.108;13.622;2023-01-26T05:29:30;25.93;;;16.50;;
68653;SDS011;55636;51.108;13.622;2023-01-26T05:30:32;28.50;;;16.63;;
68653;SDS011;55636;51.108;13.622;2023-01-26T05:31:35;25.53;;;16.60;;
68653;SDS011;55636;51.108;13.622;2023-01-26T05:32:38;27.97;;;16.13;;
68653;SDS011;55636;51.108;13.622;2023-01-26T05:33:40;29.23;;;17.30;;
68653;SDS011;55636;51.108;13.622;2023-01-26T05:34:45;29.00;;;17.50;;
68653;SDS011;55636;51.108;13.622;2023-01-26T05:35:48;28.30;;;17.30;;
68653;SDS011;55636;51.108;13.622;2023-01-26T05:36:51;29.50;;;16.57;;
68653;SDS011;55636;51.108;13.622;2023-01-26T05:37:53;29.83;;;17.17;;
68653;SDS011;55636;51.108;13.622;2023-01-26T05:38:58;26.57;;;17.53;;
68653;SDS011;55636;51.108;13.622;2023-01-26T05:40:01;27.27;;;16.23;;
68653;SDS011;55636;51.108;13.622;2023-01-26T05:41:05;25.17;;;15.87;;
68653;SDS011;55636;51.108;13.622;2023-01-26T05:42:17;26.77;;;16.20;;
68653;SDS011;55636;51.108;13.622;2023-01-26T05:43:36;24.17;;;16.33;;
68653;SDS011;55636;51.108;13.622;2023-01-26T05:44:43;21.53;;;14.83;;
68653;SDS011;55636;51.108;13.622;2023-01-26T05:45:48;24.33;;;15.70;;
68653;SDS011;55636;51.108;13.622;2023-01-26T05:46:51;23.93;;;15.10;;
68653;SDS011;55636;51.108;13.622;2023-01-26T05:47:56;20.77;;;15.37;;
68653;SDS011;55636;51.108;13.622;2023-01-26T05:48:58;21.63;;;14.57;;
68653;SDS011;55636;51.108;13.622;2023-01-26T05:50:00;20.53;;;14.57;;
68653;SDS011;55636;51.108;13.622;2023-01-26T05:51:05;19.60;;;14.47;;
68653;SDS011;55636;51.108;13.622;2023-01-26T05:52:19;24.00;;;15.63;;
68653;SDS011;55636;51.108;13.622;2023-01-26T05:53:23;21.43;;;15.07;;
68653;SDS011;55636;51.108;13.622;2023-01-26T05:54:26;22.37;;;15.17;;
68653;SDS011;55636;51.108;13.622;2023-01-26T05:55:29;20.43;;;14.97;;
68653;SDS011;55636;51.108;13.622;2023-01-26T05:56:34;22.27;;;15.03;;
68653;SDS011;55636;51.108;13.622;2023-01-26T05:57:40;23.17;;;15.17;;
68653;SDS011;55636;51.108;13.622;2023-01-26T05:58:43;24.43;;;16.57;;
68653;SDS011;55636;51.108;13.622;2023-01-26T05:59:45;22.57;;;15.20;;
68653;SDS011;55636;51.108;13.622;2023-01-26T06:00:47;20.20;;;15.50;;
68653;SDS011;55636;51.108;13.622;2023-01-26T06:01:57;21.37;;;15.70;;
68653;SDS011;55636;51.108;13.622;2023-01-26T06:03:00;23.50;;;16.60;;
68653;SDS011;55636;51.108;13.622;2023-01-26T06:04:02;26.17;;;16.77;;
68653;SDS011;55636;51.108;13.622;2023-01-26T06:05:17;26.40;;;16.57;;
68653;SDS011;55636;51.108;13.622;2023-01-26T06:06:22;24.77;;;16.93;;
68653;SDS011;55636;51.108;13.622;2023-01-26T06:07:44;24.63;;;16.60;;
68653;SDS011;55636;51.108;13.622;2023-01-26T06:08:53;23.17;;;15.87;;
68653;SDS011;55636;51.108;13.622;2023-01-26T06:10:22;24.20;;;16.30;;
68653;SDS011;55636;51.108;13.622;2023-01-26T06:11:42;24.50;;;16.93;;
68653;SDS011;55636;51.108;13.622;2023-01-26T06:13:20;23.87;;;16.63;;
68653;SDS011;55636;51.108;13.622;2023-01-26T06:14:27;24.10;;;17.57;;
68653;SDS011;55636;51.108;13.622;2023-01-26T06:15:29;26.43;;;17.20;;
68653;SDS011;55636;51.108;13.622;2023-01-26T06:16:32;24.50;;;17.33;;
68653;SDS011;55636;51.108;13.622;2023-01-26T06:17:36;23.60;;;17.33;;
68653;SDS011;55636;51.108;13.622;2023-01-26T06:18:41;23.70;;;16.70;;
68653;SDS011;55636;51.108;13.622;2023-01-26T06:19:43;24.53;;;17.57;;
68653;SDS011;55636;51.108;13.622;2023-01-26T06:20:48;23.77;;;17.23;;
68653;SDS011;55636;51.108;13.622;2023-01-26T06:21:50;23.40;;;17.00;;
68653;SDS011;55636;51.108;13.622;2023-01-26T06:22:58;22.07;;;16.90;;
68653;SDS011;55636;51.108;13.622;2023-01-26T06:24:05;23.43;;;16.90;;
68653;SDS011;55636;51.108;13.622;2023-01-26T06:25:08;23.87;;;17.47;;
68653;SDS011;55636;51.108;13.622;2023-01-26T06:26:10;22.57;;;16.93;;
68653;SDS011;55636;51.108;13.622;2023-01-26T06:27:14;25.00;;;17.77;;
68653;SDS011;55636;51.108;13.622;2023-01-26T06:28:23;24.00;;;17.27;;
68653;SDS011;55636;51.108;13.622;2023-01-26T06:29:25;24.00;;;16.70;;
68653;SDS011;55636;51.108;13.622;2023-01-26T06:30:29;24.90;;;17.50;;
68653;SDS011;55636;51.108;13.622;2023-01-26T06:31:35;24.70;;;17.17;;
68653;SDS011;55636;51.108;13.622;2023-01-26T06:32:39;23.37;;;16.90;;